Terminal Aerodrome Forecast
Issued by NWS Chicago, IL

Home | Current Version | Previous Version | Text Only | Print | Product List | Glossary Off
Versions: 1 2 3 4 5 6 7 8 9 10 11 12 13 14 15 16 17 18 19 20 21 22 23 24 25

028
FTUS43 KLOT 231132
TAFRFD
TAF
KRFD 231132Z 2312/2412 00000KT P6SM SCT030
     FM231500 29007KT P6SM SCT070
     FM231700 31010KT P6SM VCSH SCT040
     FM231900 36008KT P6SM SCT040
     FM240400 34005KT P6SM FEW200=

USA.gov is the U.S. government's official web portal to all federal, state and local government web resources and services.